Ada, Oklahoma
Current Conditions -  °F | °C
As of 2:15 PM on Monday 26 Jan 2015 (Local Time) from KADH Reporting Station
Clear Clear  
Wind Chill: 70°   Ceiling: Unl
Heat Index: 70°   Visibility: 10mi
Dew Point: 41°   Wind: 9mph
Humidity: 35%   Direction: 260°W
Pressure: 30.04"   Gusts: NA
Location:  34.78°N, 96.68°W
Report Text: KADH 262015Z AUTO 26008KT 10SM CLR 21/05 A3004 RMK AO2
Loading
Personal Weather Stations






























Interactive Weather Map New forecast layout! Learn more

10-Day Weather Forecast

Advertisements
Track Severe Weather on mobile